Terminal Aerodrome Forecast
Issued by NWS

Home | Current Version | Previous Version | Text Only | Print | Product List | Glossary On
Versions: 1 2 3 4 5 6 7 8 9 10 11 12 13 14
000
FTUS45 KREV 272300
TAFMMH
TAF
KMMH 272324Z 2800/2824 21010G20KT P6SM SCT220
     FM280200 22008KT P6SM FEW220
     FM281000 22011G20KT P6SM SKC
     FM281700 22020G33KT P6SM SKC
      AMD NOT SKED 2802/2814=

USA.gov is the U.S. government's official web portal to all federal, state and local government web resources and services.